sensor_id;sensor_type;location;lat;lon;timestamp;P1;durP1;ratioP1;P2;durP2;ratioP2
75914;SDS011;64593;51.050;13.780;2023-09-19T06:02:44;2.35;;;0.98;;
75914;SDS011;64593;51.050;13.780;2023-09-19T06:08:11;5.88;;;1.83;;
75914;SDS011;64593;51.050;13.780;2023-09-19T06:13:38;3.65;;;1.00;;
75914;SDS011;64593;51.050;13.780;2023-09-19T06:18:42;2.60;;;0.98;;
75914;SDS011;64593;51.050;13.780;2023-09-19T06:23:46;2.15;;;1.00;;
75914;SDS011;64593;51.050;13.780;2023-09-19T06:28:48;1.75;;;0.95;;
75914;SDS011;64593;51.050;13.780;2023-09-19T06:33:52;2.90;;;1.10;;
75914;SDS011;64593;51.050;13.780;2023-09-19T06:38:58;2.08;;;0.90;;
75914;SDS011;64593;51.050;13.780;2023-09-19T06:44:02;4.80;;;0.90;;
75914;SDS011;64593;51.050;13.780;2023-09-19T06:49:06;2.30;;;0.90;;
75914;SDS011;64593;51.050;13.780;2023-09-19T06:54:14;2.63;;;0.68;;
75914;SDS011;64593;51.050;13.780;2023-09-19T06:59:19;2.95;;;0.65;;
75914;SDS011;64593;51.050;13.780;2023-09-19T07:04:21;2.00;;;0.85;;
75914;SDS011;64593;51.050;13.780;2023-09-19T07:09:26;2.58;;;0.80;;
75914;SDS011;64593;51.050;13.780;2023-09-19T07:14:33;4.30;;;1.40;;
75914;SDS011;64593;51.050;13.780;2023-09-19T07:19:38;3.28;;;0.57;;
75914;SDS011;64593;51.050;13.780;2023-09-19T07:24:45;4.32;;;0.82;;
75914;SDS011;64593;51.050;13.780;2023-09-19T07:29:48;2.03;;;0.80;;
75914;SDS011;64593;51.050;13.780;2023-09-19T07:34:56;1.30;;;0.63;;
75914;SDS011;64593;51.050;13.780;2023-09-19T07:39:59;2.92;;;0.55;;
75914;SDS011;64593;51.050;13.780;2023-09-19T07:45:02;2.17;;;0.70;;
75914;SDS011;64593;51.050;13.780;2023-09-19T07:50:04;8.02;;;0.65;;
75914;SDS011;64593;51.050;13.780;2023-09-19T07:55:09;3.53;;;0.60;;
75914;SDS011;64593;51.050;13.780;2023-09-19T08:00:12;3.20;;;0.68;;
75914;SDS011;64593;51.050;13.780;2023-09-19T08:05:15;2.10;;;0.73;;
75914;SDS011;64593;51.050;13.780;2023-09-19T08:10:23;4.20;;;0.50;;
75914;SDS011;64593;51.050;13.780;2023-09-19T08:15:29;2.95;;;0.90;;
75914;SDS011;64593;51.050;13.780;2023-09-19T08:20:56;2.60;;;0.43;;
75914;SDS011;64593;51.050;13.780;2023-09-19T08:26:04;2.95;;;0.88;;
75914;SDS011;64593;51.050;13.780;2023-09-19T08:31:11;1.92;;;0.50;;
75914;SDS011;64593;51.050;13.780;2023-09-19T08:36:18;2.33;;;0.65;;
75914;SDS011;64593;51.050;13.780;2023-09-19T08:41:20;3.35;;;0.63;;
75914;SDS011;64593;51.050;13.780;2023-09-19T08:46:27;5.95;;;0.77;;
75914;SDS011;64593;51.050;13.780;2023-09-19T08:51:41;2.55;;;0.52;;
75914;SDS011;64593;51.050;13.780;2023-09-19T08:57:11;2.83;;;0.60;;
75914;SDS011;64593;51.050;13.780;2023-09-19T09:07:43;2.22;;;0.60;;
75914;SDS011;64593;51.050;13.780;2023-09-19T09:12:45;3.90;;;0.75;;
75914;SDS011;64593;51.050;13.780;2023-09-19T09:18:12;1.75;;;0.80;;
75914;SDS011;64593;51.050;13.780;2023-09-19T09:23:16;2.83;;;0.80;;
75914;SDS011;64593;51.050;13.780;2023-09-19T09:28:46;1.35;;;0.50;;
75914;SDS011;64593;51.050;13.780;2023-09-19T09:34:15;2.42;;;0.60;;
75914;SDS011;64593;51.050;13.780;2023-09-19T09:39:29;2.38;;;0.80;;
75914;SDS011;64593;51.050;13.780;2023-09-19T09:44:33;2.25;;;0.50;;
75914;SDS011;64593;51.050;13.780;2023-09-19T09:49:59;1.75;;;0.63;;
75914;SDS011;64593;51.050;13.780;2023-09-19T09:55:09;3.88;;;1.08;;
75914;SDS011;64593;51.050;13.780;2023-09-19T10:00:11;3.35;;;0.77;;
75914;SDS011;64593;51.050;13.780;2023-09-19T10:05:14;2.00;;;0.57;;
75914;SDS011;64593;51.050;13.780;2023-09-19T10:10:30;3.83;;;0.70;;
75914;SDS011;64593;51.050;13.780;2023-09-19T10:15:44;1.88;;;0.45;;
75914;SDS011;64593;51.050;13.780;2023-09-19T10:21:22;3.13;;;0.65;;
75914;SDS011;64593;51.050;13.780;2023-09-19T10:26:29;1.40;;;0.40;;
75914;SDS011;64593;51.050;13.780;2023-09-19T10:31:32;2.67;;;0.68;;
75914;SDS011;64593;51.050;13.780;2023-09-19T10:37:02;3.05;;;0.50;;
75914;SDS011;64593;51.050;13.780;2023-09-19T10:42:45;3.00;;;0.55;;
75914;SDS011;64593;51.050;13.780;2023-09-19T10:48:12;2.05;;;0.70;;
75914;SDS011;64593;51.050;13.780;2023-09-19T10:59:08;3.53;;;0.75;;
75914;SDS011;64593;51.050;13.780;2023-09-19T11:04:20;2.80;;;0.63;;
75914;SDS011;64593;51.050;13.780;2023-09-19T11:09:58;2.88;;;0.73;;
75914;SDS011;64593;51.050;13.780;2023-09-19T11:16:02;2.03;;;0.68;;
75914;SDS011;64593;51.050;13.780;2023-09-19T11:27:09;3.78;;;1.20;;
75914;SDS011;64593;51.050;13.780;2023-09-19T11:32:15;4.05;;;0.90;;
75914;SDS011;64593;51.050;13.780;2023-09-19T11:42:53;5.28;;;0.68;;
75914;SDS011;64593;51.050;13.780;2023-09-19T11:47:58;5.43;;;1.02;;
75914;SDS011;64593;51.050;13.780;2023-09-19T11:53:30;2.70;;;0.90;;
75914;SDS011;64593;51.050;13.780;2023-09-19T11:58:59;2.50;;;0.75;;
75914;SDS011;64593;51.050;13.780;2023-09-19T12:09:50;6.30;;;1.20;;
75914;SDS011;64593;51.050;13.780;2023-09-19T12:15:31;3.97;;;1.10;;
75914;SDS011;64593;51.050;13.780;2023-09-19T12:21:05;2.08;;;0.90;;
75914;SDS011;64593;51.050;13.780;2023-09-19T12:26:09;2.72;;;1.02;;
75914;SDS011;64593;51.050;13.780;2023-09-19T12:31:14;2.83;;;0.70;;
75914;SDS011;64593;51.050;13.780;2023-09-19T12:36:45;4.78;;;0.60;;
75914;SDS011;64593;51.050;13.780;2023-09-19T12:41:47;3.42;;;0.60;;
75914;SDS011;64593;51.050;13.780;2023-09-19T12:47:15;3.30;;;0.80;;
75914;SDS011;64593;51.050;13.780;2023-09-19T12:52:47;3.10;;;0.90;;
75914;SDS011;64593;51.050;13.780;2023-09-19T12:58:16;5.30;;;0.80;;
75914;SDS011;64593;51.050;13.780;2023-09-19T13:08:30;2.20;;;0.77;;
75914;SDS011;64593;51.050;13.780;2023-09-19T13:14:20;2.25;;;0.70;;
75914;SDS011;64593;51.050;13.780;2023-09-19T13:19:54;3.97;;;0.70;;
75914;SDS011;64593;51.050;13.780;2023-09-19T13:25:22;3.10;;;1.08;;
75914;SDS011;64593;51.050;13.780;2023-09-19T13:30:26;3.05;;;0.75;;
75914;SDS011;64593;51.050;13.780;2023-09-19T13:35:56;3.60;;;1.10;;
75914;SDS011;64593;51.050;13.780;2023-09-19T13:40:58;6.13;;;1.10;;
75914;SDS011;64593;51.050;13.780;2023-09-19T13:46:25;3.90;;;1.30;;
75914;SDS011;64593;51.050;13.780;2023-09-19T13:51:29;3.45;;;1.02;;
75914;SDS011;64593;51.050;13.780;2023-09-19T13:56:32;3.70;;;0.95;;
75914;SDS011;64593;51.050;13.780;2023-09-19T14:02:00;5.32;;;1.00;;
75914;SDS011;64593;51.050;13.780;2023-09-19T14:07:02;2.30;;;0.73;;
75914;SDS011;64593;51.050;13.780;2023-09-19T14:12:05;4.75;;;0.80;;
75914;SDS011;64593;51.050;13.780;2023-09-19T14:17:07;2.80;;;0.80;;
75914;SDS011;64593;51.050;13.780;2023-09-19T14:22:34;2.83;;;1.10;;
75914;SDS011;64593;51.050;13.780;2023-09-19T14:28:01;4.40;;;0.95;;
75914;SDS011;64593;51.050;13.780;2023-09-19T14:33:04;3.17;;;0.95;;
75914;SDS011;64593;51.050;13.780;2023-09-19T14:38:08;3.42;;;1.10;;
75914;SDS011;64593;51.050;13.780;2023-09-19T14:48:37;2.47;;;1.00;;
75914;SDS011;64593;51.050;13.780;2023-09-19T14:53:40;2.13;;;1.00;;
75914;SDS011;64593;51.050;13.780;2023-09-19T14:59:08;1.80;;;1.00;;
75914;SDS011;64593;51.050;13.780;2023-09-19T15:04:37;4.13;;;1.33;;
75914;SDS011;64593;51.050;13.780;2023-09-19T15:09:42;3.13;;;1.23;;
75914;SDS011;64593;51.050;13.780;2023-09-19T15:14:44;3.85;;;1.30;;
75914;SDS011;64593;51.050;13.780;2023-09-19T15:19:46;3.58;;;1.13;;
75914;SDS011;64593;51.050;13.780;2023-09-19T15:29:50;3.28;;;1.23;;
75914;SDS011;64593;51.050;13.780;2023-09-19T15:35:17;4.63;;;1.00;;
75914;SDS011;64593;51.050;13.780;2023-09-19T15:40:19;3.70;;;1.15;;
75914;SDS011;64593;51.050;13.780;2023-09-19T15:45:21;3.22;;;0.93;;
75914;SDS011;64593;51.050;13.780;2023-09-19T15:50:48;3.45;;;1.20;;
75914;SDS011;64593;51.050;13.780;2023-09-19T15:56:18;2.20;;;1.17;;
75914;SDS011;64593;51.050;13.780;2023-09-19T16:01:49;2.92;;;1.08;;
75914;SDS011;64593;51.050;13.780;2023-09-19T16:06:52;3.92;;;1.10;;
75914;SDS011;64593;51.050;13.780;2023-09-19T16:11:53;4.38;;;1.23;;
75914;SDS011;64593;51.050;13.780;2023-09-19T16:16:55;6.57;;;1.50;;
75914;SDS011;64593;51.050;13.780;2023-09-19T16:21:59;4.10;;;1.30;;
75914;SDS011;64593;51.050;13.780;2023-09-19T16:27:26;5.10;;;1.30;;
75914;SDS011;64593;51.050;13.780;2023-09-19T16:32:53;8.95;;;1.33;;
75914;SDS011;64593;51.050;13.780;2023-09-19T16:37:55;5.07;;;1.75;;
75914;SDS011;64593;51.050;13.780;2023-09-19T16:48:26;4.28;;;1.70;;
75914;SDS011;64593;51.050;13.780;2023-09-19T16:53:29;4.30;;;1.50;;
75914;SDS011;64593;51.050;13.780;2023-09-19T16:59:01;4.68;;;1.90;;
75914;SDS011;64593;51.050;13.780;2023-09-19T17:04:31;3.17;;;1.40;;
75914;SDS011;64593;51.050;13.780;2023-09-19T17:09:58;5.97;;;1.67;;
75914;SDS011;64593;51.050;13.780;2023-09-19T17:14:59;6.78;;;1.40;;
75914;SDS011;64593;51.050;13.780;2023-09-19T17:20:26;4.78;;;2.30;;
75914;SDS011;64593;51.050;13.780;2023-09-19T17:26:01;4.35;;;1.65;;
75914;SDS011;64593;51.050;13.780;2023-09-19T17:36:22;5.30;;;1.67;;
75914;SDS011;64593;51.050;13.780;2023-09-19T17:41:50;7.80;;;1.60;;
75914;SDS011;64593;51.050;13.780;2023-09-19T17:47:17;6.22;;;2.03;;
75914;SDS011;64593;51.050;13.780;2023-09-19T17:52:19;4.22;;;2.03;;
75914;SDS011;64593;51.050;13.780;2023-09-19T18:02:49;6.07;;;1.70;;
75914;SDS011;64593;51.050;13.780;2023-09-19T18:08:22;5.82;;;2.22;;
75914;SDS011;64593;51.050;13.780;2023-09-19T18:13:24;4.80;;;1.85;;
75914;SDS011;64593;51.050;13.780;2023-09-19T18:18:26;4.18;;;1.67;;
75914;SDS011;64593;51.050;13.780;2023-09-19T18:23:53;4.60;;;1.90;;
75914;SDS011;64593;51.050;13.780;2023-09-19T18:29:25;5.15;;;1.90;;
75914;SDS011;64593;51.050;13.780;2023-09-19T18:34:52;5.20;;;2.13;;
75914;SDS011;64593;51.050;13.780;2023-09-19T18:39:53;5.32;;;1.60;;
75914;SDS011;64593;51.050;13.780;2023-09-19T18:45:21;5.22;;;1.90;;
75914;SDS011;64593;51.050;13.780;2023-09-19T18:51:03;9.18;;;2.35;;
75914;SDS011;64593;51.050;13.780;2023-09-19T18:56:09;4.18;;;2.30;;
75914;SDS011;64593;51.050;13.780;2023-09-19T19:01:38;4.07;;;1.65;;
75914;SDS011;64593;51.050;13.780;2023-09-19T19:07:06;6.43;;;2.47;;
75914;SDS011;64593;51.050;13.780;2023-09-19T19:12:13;6.88;;;2.13;;
75914;SDS011;64593;51.050;13.780;2023-09-19T19:17:40;8.23;;;1.80;;
75914;SDS011;64593;51.050;13.780;2023-09-19T19:22:44;5.03;;;1.90;;
75914;SDS011;64593;51.050;13.780;2023-09-19T19:27:46;5.57;;;2.40;;
75914;SDS011;64593;51.050;13.780;2023-09-19T19:32:49;6.28;;;2.70;;
75914;SDS011;64593;51.050;13.780;2023-09-19T19:37:52;8.45;;;2.92;;
75914;SDS011;64593;51.050;13.780;2023-09-19T19:42:54;6.00;;;2.92;;
75914;SDS011;64593;51.050;13.780;2023-09-19T19:48:00;8.63;;;2.85;;
75914;SDS011;64593;51.050;13.780;2023-09-19T19:53:04;10.38;;;3.50;;
75914;SDS011;64593;51.050;13.780;2023-09-19T19:58:07;6.88;;;3.10;;
75914;SDS011;64593;51.050;13.780;2023-09-19T20:03:34;10.52;;;3.00;;
75914;SDS011;64593;51.050;13.780;2023-09-19T20:09:04;7.43;;;3.10;;
75914;SDS011;64593;51.050;13.780;2023-09-19T20:14:32;8.48;;;3.72;;
75914;SDS011;64593;51.050;13.780;2023-09-19T20:19:59;6.90;;;2.90;;
75914;SDS011;64593;51.050;13.780;2023-09-19T20:25:01;9.05;;;2.65;;
75914;SDS011;64593;51.050;13.780;2023-09-19T20:30:06;7.90;;;2.58;;
75914;SDS011;64593;51.050;13.780;2023-09-19T20:35:14;7.72;;;2.85;;
75914;SDS011;64593;51.050;13.780;2023-09-19T20:40:41;8.38;;;2.97;;
75914;SDS011;64593;51.050;13.780;2023-09-19T20:45:45;6.50;;;2.78;;
75914;SDS011;64593;51.050;13.780;2023-09-19T20:50:55;9.57;;;2.58;;
75914;SDS011;64593;51.050;13.780;2023-09-19T20:56:25;5.97;;;2.30;;
75914;SDS011;64593;51.050;13.780;2023-09-19T21:01:53;6.45;;;2.60;;
75914;SDS011;64593;51.050;13.780;2023-09-19T21:06:55;8.27;;;2.72;;
75914;SDS011;64593;51.050;13.780;2023-09-19T21:11:56;5.75;;;2.53;;
75914;SDS011;64593;51.050;13.780;2023-09-19T21:17:23;5.78;;;2.75;;
75914;SDS011;64593;51.050;13.780;2023-09-19T21:22:52;5.80;;;2.70;;
75914;SDS011;64593;51.050;13.780;2023-09-19T21:27:57;11.20;;;3.33;;
75914;SDS011;64593;51.050;13.780;2023-09-19T21:33:24;9.20;;;3.00;;
75914;SDS011;64593;51.050;13.780;2023-09-19T21:38:26;7.65;;;2.83;;
75914;SDS011;64593;51.050;13.780;2023-09-19T21:43:53;7.10;;;2.67;;
75914;SDS011;64593;51.050;13.780;2023-09-19T21:48:58;5.97;;;2.38;;
75914;SDS011;64593;51.050;13.780;2023-09-19T21:54:24;5.75;;;2.40;;
75914;SDS011;64593;51.050;13.780;2023-09-19T21:59:40;8.05;;;2.30;;
